Time;durP1;ratioP1;P1;durP2;ratioP2;P2;SDS_P1;SDS_P2;PMS_P1;PMS_P2;Temp;Humidity;BMP_temperature;BMP_pressure;BME280_temperature;BME280_humidity;BME280_pressure;Samples;Min_cycle;Max_cycle;Signal;HPM_P1;HPM_P2
2023/05/08 00:00:37;;;;;;;11.50;5.38;;;9.90;99.90;;;;;;5102091;28;20027;-75
2023/05/08 00:03:03;;;;;;;9.02;5.10;;;9.90;99.90;;;;;;5120692;27;20027;-75
2023/05/08 00:05:29;;;;;;;9.93;4.93;;;9.80;99.90;;;;;;5112223;27;20042;-75
2023/05/08 00:08:00;;;;;;;10.05;5.05;;;9.80;99.90;;;;;;5102630;28;20043;-75
2023/05/08 00:10:26;;;;;;;10.43;5.22;;;9.70;99.90;;;;;;5106717;28;20225;-75
2023/05/08 00:12:51;;;;;;;8.20;4.88;;;9.60;99.90;;;;;;5102619;28;20032;-75
2023/05/08 00:15:17;;;;;;;8.93;4.82;;;9.60;99.90;;;;;;5102434;28;20054;-74
2023/05/08 00:17:43;;;;;;;6.43;4.82;;;9.60;99.90;;;;;;5111730;27;20035;-75
2023/05/08 00:20:09;;;;;;;10.10;5.25;;;9.60;99.90;;;;;;5109785;28;20051;-75
2023/05/08 00:22:35;;;;;;;8.57;5.00;;;9.60;99.90;;;;;;5107350;28;20076;-75
2023/05/08 00:25:00;;;;;;;8.23;4.50;;;9.60;99.90;;;;;;5101739;28;20061;-74
2023/05/08 00:27:26;;;;;;;7.15;4.53;;;9.50;99.90;;;;;;5106506;27;20482;-75
2023/05/08 00:29:51;;;;;;;8.45;4.90;;;9.50;99.90;;;;;;5105924;28;20074;-75
2023/05/08 00:32:17;;;;;;;7.43;4.68;;;9.50;99.90;;;;;;5120204;27;20385;-75
2023/05/08 00:34:43;;;;;;;9.35;4.93;;;9.50;99.90;;;;;;5121556;27;20031;-75
2023/05/08 00:37:08;;;;;;;10.48;5.00;;;9.50;99.90;;;;;;5125879;27;20027;-74
2023/05/08 00:39:34;;;;;;;8.82;4.97;;;9.40;99.90;;;;;;5123175;27;20023;-75
2023/05/08 00:42:00;;;;;;;7.90;5.30;;;9.50;99.90;;;;;;5126533;27;20119;-75
2023/05/08 00:44:26;;;;;;;9.52;5.68;;;9.50;99.90;;;;;;5110104;27;20051;-75
2023/05/08 00:46:51;;;;;;;9.85;5.00;;;9.50;99.90;;;;;;5123479;27;20038;-75
2023/05/08 00:49:17;;;;;;;10.05;5.05;;;9.50;99.90;;;;;;5131983;27;20039;-75
2023/05/08 00:51:45;;;;;;;11.38;4.43;;;9.40;99.90;;;;;;5125299;27;20068;-75
2023/05/08 00:54:11;;;;;;;10.93;5.28;;;9.40;99.90;;;;;;5124448;27;20522;-75
2023/05/08 00:56:37;;;;;;;9.93;5.45;;;9.40;99.90;;;;;;5109809;27;20130;-75
2023/05/08 00:59:14;;;;;;;11.45;5.05;;;9.40;99.90;;;;;;5106804;28;20114;-75
2023/05/08 01:01:41;;;;;;;10.43;5.28;;;9.40;99.90;;;;;;5112822;27;20027;-75
2023/05/08 01:04:07;;;;;;;12.27;5.43;;;9.40;99.90;;;;;;5132938;27;20907;-75
2023/05/08 01:06:36;;;;;;;16.27;6.03;;;9.40;99.90;;;;;;5110656;27;20081;-75
2023/05/08 01:09:02;;;;;;;9.70;5.15;;;9.40;99.90;;;;;;5106429;27;20122;-75
2023/05/08 01:11:35;;;;;;;10.75;5.75;;;9.30;99.90;;;;;;5118454;27;20027;-74
2023/05/08 01:14:21;;;;;;;11.95;6.10;;;9.30;99.90;;;;;;5123902;27;20023;-75
2023/05/08 01:16:53;;;;;;;9.77;5.25;;;9.40;99.90;;;;;;5119234;27;20065;-75
2023/05/08 01:19:37;;;;;;;12.82;5.97;;;9.30;99.90;;;;;;5115271;27;20031;-75
2023/05/08 01:22:10;;;;;;;9.25;5.40;;;9.30;99.90;;;;;;5125096;27;20035;-75
2023/05/08 01:25:02;;;;;;;8.80;5.40;;;9.30;99.90;;;;;;5107984;27;20024;-74
2023/05/08 01:27:57;;;;;;;9.30;6.15;;;9.20;99.90;;;;;;5113379;27;20360;-75
2023/05/08 01:30:47;;;;;;;11.60;5.70;;;9.20;99.90;;;;;;5121892;27;20053;-75
2023/05/08 01:33:19;;;;;;;9.98;5.22;;;9.20;99.90;;;;;;5105915;27;20049;-75
2023/05/08 01:35:51;;;;;;;8.10;5.30;;;9.20;99.90;;;;;;5104898;27;20027;-76
2023/05/08 01:38:31;;;;;;;8.85;5.85;;;9.20;99.90;;;;;;5100431;27;20027;-74
2023/05/08 01:41:13;;;;;;;7.28;4.90;;;9.10;99.90;;;;;;5114493;27;20600;-75
2023/05/08 01:43:56;;;;;;;9.02;4.95;;;9.10;99.90;;;;;;5124229;27;20363;-75
2023/05/08 01:46:25;;;;;;;9.65;5.55;;;9.10;99.90;;;;;;5125299;27;20484;-75
2023/05/08 01:49:01;;;;;;;8.07;5.43;;;9.00;99.90;;;;;;5115385;27;20062;-74
2023/05/08 01:51:31;;;;;;;7.38;5.20;;;9.00;99.90;;;;;;5109555;27;20031;-75
2023/05/08 01:54:05;;;;;;;7.18;4.97;;;9.00;99.90;;;;;;5122225;27;20053;-75
2023/05/08 01:56:31;;;;;;;9.48;5.65;;;9.00;99.90;;;;;;5104913;27;20455;-75
2023/05/08 01:58:58;;;;;;;8.82;5.45;;;9.00;99.90;;;;;;5102834;28;20403;-74
2023/05/08 02:01:27;;;;;;;7.30;5.30;;;8.90;99.90;;;;;;5110887;27;20050;-74
2023/05/08 02:03:54;;;;;;;8.40;6.05;;;8.90;99.90;;;;;;5128898;27;20035;-74
2023/05/08 02:06:21;;;;;;;7.55;4.97;;;8.80;99.90;;;;;;5135574;27;20030;-75
2023/05/08 02:08:47;;;;;;;7.35;5.78;;;8.80;99.90;;;;;;5116114;27;20573;-75
2023/05/08 02:11:15;;;;;;;8.40;5.35;;;8.80;99.90;;;;;;5112700;27;20595;-75
2023/05/08 02:13:43;;;;;;;6.07;4.63;;;8.70;99.90;;;;;;5113107;27;20030;-75
2023/05/08 02:16:09;;;;;;;6.45;5.15;;;8.80;99.90;;;;;;5108104;27;20609;-75
2023/05/08 02:18:39;;;;;;;8.50;5.53;;;8.80;99.90;;;;;;5123731;27;20102;-75
2023/05/08 02:21:06;;;;;;;6.65;5.35;;;8.70;99.90;;;;;;5105546;27;20024;-75
2023/05/08 02:23:33;;;;;;;7.90;5.90;;;8.80;99.90;;;;;;5112001;27;20035;-75
2023/05/08 02:26:00;;;;;;;7.50;5.38;;;8.80;99.90;;;;;;5117092;27;20118;-75
2023/05/08 02:28:28;;;;;;;9.02;5.45;;;8.70;99.90;;;;;;5132310;27;20775;-75
2023/05/08 02:30:55;;;;;;;7.80;5.20;;;8.70;99.90;;;;;;5135650;27;20038;-75
2023/05/08 02:33:22;;;;;;;7.80;4.93;;;8.70;99.90;;;;;;5121944;27;20019;-75
2023/05/08 02:35:49;;;;;;;7.80;5.38;;;8.60;99.90;;;;;;5120908;27;20060;-75
2023/05/08 02:38:18;;;;;;;7.03;4.97;;;8.60;99.90;;;;;;5119672;27;20129;-75
2023/05/08 02:40:50;;;;;;;8.05;5.20;;;8.60;99.90;;;;;;5112357;27;20028;-75
2023/05/08 02:43:15;;;;;;;8.02;5.03;;;8.60;99.90;;;;;;5128609;27;20103;-75
2023/05/08 02:46:13;;;;;;;6.22;4.45;;;8.60;99.90;;;;;;5120802;27;20150;-75
2023/05/08 02:49:02;;;;;;;7.20;5.25;;;8.60;99.90;;;;;;5119740;27;20161;-75
2023/05/08 02:51:47;;;;;;;8.05;5.47;;;8.70;99.90;;;;;;5121666;27;20058;-75
2023/05/08 02:54:35;;;;;;;8.77;6.35;;;8.60;99.90;;;;;;5102541;27;20035;-75
2023/05/08 02:57:12;;;;;;;10.13;5.82;;;8.70;99.90;;;;;;5120550;27;20034;-75
2023/05/08 03:00:03;;;;;;;8.90;5.80;;;8.70;99.90;;;;;;5118531;27;20391;-74
2023/05/08 03:02:42;;;;;;;10.77;5.50;;;8.70;99.90;;;;;;5104379;27;20035;-75
2023/05/08 03:05:16;;;;;;;9.05;5.55;;;8.70;99.90;;;;;;5101542;28;20111;-76
2023/05/08 03:07:44;;;;;;;8.18;5.53;;;8.70;99.90;;;;;;5102401;28;20034;-75
2023/05/08 03:10:14;;;;;;;8.65;5.85;;;8.70;99.90;;;;;;5102353;27;20085;-75
2023/05/08 03:12:44;;;;;;;7.50;5.50;;;8.80;99.90;;;;;;5115019;27;20109;-75
2023/05/08 03:15:26;;;;;;;8.13;5.65;;;8.80;99.90;;;;;;5108734;27;20091;-75
2023/05/08 03:17:55;;;;;;;8.32;5.82;;;8.90;99.90;;;;;;5106200;27;20031;-74
2023/05/08 03:20:23;;;;;;;10.60;5.78;;;8.90;99.90;;;;;;5107775;27;20043;-75
2023/05/08 03:22:52;;;;;;;9.80;5.30;;;8.90;99.90;;;;;;5101485;28;20483;-75
2023/05/08 03:25:19;;;;;;;9.65;5.95;;;8.90;99.90;;;;;;5102045;27;20387;-75
2023/05/08 03:27:45;;;;;;;10.82;6.15;;;8.90;99.90;;;;;;5136706;27;20031;-75
2023/05/08 03:30:12;;;;;;;21.92;6.20;;;8.90;99.90;;;;;;5107846;27;20059;-75
2023/05/08 03:32:38;;;;;;;16.13;5.95;;;8.90;99.90;;;;;;5123238;27;20105;-75
2023/05/08 03:35:06;;;;;;;8.90;5.50;;;8.90;99.90;;;;;;5105798;27;20883;-76
2023/05/08 03:37:32;;;;;;;7.32;5.20;;;8.80;99.90;;;;;;5132391;27;20027;-76
2023/05/08 03:39:57;;;;;;;7.68;5.70;;;8.80;99.90;;;;;;5120853;27;20083;-75
2023/05/08 03:42:25;;;;;;;7.47;5.57;;;8.80;99.90;;;;;;5106287;27;20066;-75
2023/05/08 03:44:51;;;;;;;7.32;5.30;;;8.80;99.90;;;;;;5106400;28;20027;-75
2023/05/08 03:47:18;;;;;;;6.43;5.35;;;8.80;99.90;;;;;;5127351;27;20027;-75
2023/05/08 03:49:48;;;;;;;6.60;5.10;;;8.80;99.90;;;;;;5131952;27;20055;-75
2023/05/08 03:52:15;;;;;;;7.82;5.78;;;8.80;99.90;;;;;;5101855;27;20444;-75
2023/05/08 03:54:40;;;;;;;8.32;5.82;;;8.70;99.90;;;;;;5102290;27;20028;-75
2023/05/08 03:57:06;;;;;;;7.68;5.63;;;8.80;99.90;;;;;;5109349;27;20092;-75
2023/05/08 03:59:53;;;;;;;6.93;5.10;;;8.80;99.90;;;;;;5100773;28;20035;-75
2023/05/08 04:02:35;;;;;;;6.95;4.95;;;8.80;99.90;;;;;;5103720;27;20106;-75
2023/05/08 04:05:17;;;;;;;7.10;5.43;;;8.70;99.90;;;;;;5099999;28;20032;-75
2023/05/08 04:07:49;;;;;;;7.15;5.40;;;8.80;99.90;;;;;;5130154;27;20033;-75
2023/05/08 04:10:30;;;;;;;6.43;4.95;;;8.80;99.90;;;;;;5119939;27;20039;-75
2023/05/08 04:13:04;;;;;;;6.78;5.00;;;8.80;99.90;;;;;;5102608;28;20016;-75
2023/05/08 04:15:33;;;;;;;10.90;4.85;;;8.70;99.90;;;;;;5099923;28;20118;-75
2023/05/08 04:18:09;;;;;;;7.53;5.20;;;8.70;99.90;;;;;;5100457;28;20813;-75
2023/05/08 04:20:37;;;;;;;8.25;5.20;;;8.60;99.90;;;;;;5105434;27;20035;-75
2023/05/08 04:23:04;;;;;;;8.15;5.47;;;8.60;99.90;;;;;;5120546;28;20035;-75
2023/05/08 04:25:33;;;;;;;8.23;5.10;;;8.60;99.90;;;;;;5102360;28;20062;-75
2023/05/08 04:28:01;;;;;;;7.25;4.70;;;8.50;99.90;;;;;;5116898;28;20075;-75
2023/05/08 04:30:27;;;;;;;6.57;4.72;;;8.50;99.90;;;;;;5099687;28;20039;-75
2023/05/08 04:32:53;;;;;;;6.30;4.65;;;8.50;99.90;;;;;;5100867;28;20533;-75
2023/05/08 04:35:19;;;;;;;7.57;4.95;;;8.50;99.90;;;;;;5108473;27;20027;-76
2023/05/08 04:37:46;;;;;;;7.22;4.70;;;8.50;99.90;;;;;;5126320;27;20444;-75
2023/05/08 04:40:11;;;;;;;7.97;5.20;;;8.60;99.90;;;;;;5105510;28;20042;-76
2023/05/08 04:42:38;;;;;;;8.02;5.10;;;8.60;99.90;;;;;;5103234;28;20020;-75
2023/05/08 04:45:05;;;;;;;6.22;4.57;;;8.70;99.90;;;;;;5082569;28;20074;-75
2023/05/08 04:47:30;;;;;;;8.18;5.00;;;8.80;99.90;;;;;;5109814;28;20386;-75
2023/05/08 04:49:56;;;;;;;9.48;5.70;;;8.90;99.90;;;;;;5106129;27;20047;-75
2023/05/08 04:52:22;;;;;;;7.72;4.68;;;9.00;99.90;;;;;;5117391;28;20084;-75
2023/05/08 04:54:47;;;;;;;8.70;5.38;;;9.10;99.90;;;;;;5121144;28;20059;-75
2023/05/08 04:57:13;;;;;;;12.55;5.82;;;9.10;99.90;;;;;;5114139;28;20028;-75
2023/05/08 04:59:38;;;;;;;13.95;6.38;;;9.20;99.90;;;;;;5101921;28;20436;-75
2023/05/08 05:02:06;;;;;;;12.60;6.45;;;9.10;99.90;;;;;;5118021;28;20038;-75
2023/05/08 05:04:34;;;;;;;9.25;5.20;;;9.20;99.90;;;;;;5118250;27;20111;-75
2023/05/08 05:07:00;;;;;;;9.00;6.13;;;9.20;99.90;;;;;;5117320;27;20058;-75
2023/05/08 05:09:25;;;;;;;9.80;6.47;;;9.20;99.90;;;;;;5105947;27;20027;-75
2023/05/08 05:11:51;;;;;;;8.80;5.85;;;9.30;99.90;;;;;;5120929;27;20031;-75
2023/05/08 05:14:17;;;;;;;10.38;5.90;;;9.30;99.90;;;;;;5122321;27;20058;-75
2023/05/08 05:16:42;;;;;;;7.95;5.60;;;9.40;99.90;;;;;;5121734;27;20035;-75
2023/05/08 05:19:08;;;;;;;6.60;4.85;;;9.50;99.90;;;;;;5106745;27;20031;-75
2023/05/08 05:21:34;;;;;;;6.70;5.03;;;9.60;99.90;;;;;;5122126;27;20023;-75
2023/05/08 05:23:59;;;;;;;10.88;6.50;;;9.70;99.90;;;;;;5119024;27;20092;-75
2023/05/08 05:26:25;;;;;;;6.38;5.03;;;9.80;99.90;;;;;;5112781;27;20962;-75
2023/05/08 05:28:50;;;;;;;6.65;5.03;;;9.90;99.90;;;;;;5104334;27;20067;-75
2023/05/08 05:31:16;;;;;;;5.95;4.60;;;10.00;99.90;;;;;;5102789;27;20035;-76
2023/05/08 05:33:41;;;;;;;5.03;4.32;;;10.10;99.90;;;;;;5103342;27;20426;-75
2023/05/08 05:36:07;;;;;;;6.60;4.80;;;10.10;99.90;;;;;;5118247;27;20031;-75
2023/05/08 05:38:33;;;;;;;5.47;4.35;;;10.20;99.90;;;;;;5112764;27;20019;-75
2023/05/08 05:40:58;;;;;;;6.25;4.68;;;10.30;99.90;;;;;;5128481;27;20592;-75
2023/05/08 05:43:24;;;;;;;7.18;4.88;;;10.40;99.90;;;;;;5124669;27;20484;-75
2023/05/08 05:45:49;;;;;;;6.25;4.40;;;10.50;99.90;;;;;;5120855;27;20035;-75
2023/05/08 05:48:15;;;;;;;6.03;4.45;;;10.60;99.90;;;;;;5120548;27;20059;-76
2023/05/08 05:50:41;;;;;;;7.15;4.50;;;10.80;99.90;;;;;;5108421;27;20044;-75
2023/05/08 05:53:06;;;;;;;6.22;4.57;;;10.90;99.90;;;;;;5101930;27;20028;-75
2023/05/08 05:55:33;;;;;;;6.97;4.60;;;11.10;99.90;;;;;;5113191;27;20035;-75
2023/05/08 05:57:58;;;;;;;6.25;4.47;;;11.20;99.90;;;;;;5128524;27;20043;-75
2023/05/08 06:00:24;;;;;;;7.07;4.28;;;11.20;99.90;;;;;;5105281;27;20110;-75
2023/05/08 06:02:50;;;;;;;6.30;4.25;;;11.30;99.90;;;;;;5105627;27;20032;-75
2023/05/08 06:05:16;;;;;;;6.95;5.15;;;11.40;99.90;;;;;;5101090;27;20707;-74
2023/05/08 06:07:42;;;;;;;88.32;47.15;;;11.40;99.90;;;;;;5117952;27;20475;-76
2023/05/08 06:10:08;;;;;;;25.08;13.60;;;11.50;99.90;;;;;;5101471;27;20044;-75
2023/05/08 06:12:34;;;;;;;11.75;6.32;;;11.50;99.90;;;;;;5104998;28;20059;-75
2023/05/08 06:15:00;;;;;;;8.65;5.90;;;11.70;99.90;;;;;;5118623;27;20035;-75
2023/05/08 06:17:25;;;;;;;7.28;4.57;;;11.80;99.90;;;;;;5120394;27;20071;-76
2023/05/08 06:19:54;;;;;;;5.57;4.57;;;11.90;99.90;;;;;;5105089;27;20034;-75
2023/05/08 06:22:26;;;;;;;6.65;4.93;;;12.00;99.90;;;;;;5122611;27;20019;-75
2023/05/08 06:24:54;;;;;;;;;;;12.10;99.90;;;;;;5102724;28;20020;-75
2023/05/08 06:27:21;;;;;;;17.20;11.20;;;12.20;99.90;;;;;;5103932;27;19945;-76
2023/05/08 06:29:51;;;;;;;7.43;4.97;;;12.40;99.90;;;;;;5121302;27;20057;-75
2023/05/08 06:32:18;;;;;;;6.47;5.18;;;12.60;99.90;;;;;;5105969;27;20506;-76
2023/05/08 06:34:44;;;;;;;8.88;5.80;;;12.70;99.90;;;;;;5110445;27;20046;-75
2023/05/08 06:37:10;;;;;;;10.00;6.47;;;12.80;99.90;;;;;;5121309;27;20034;-75
2023/05/08 06:39:35;;;;;;;11.35;5.70;;;12.90;99.90;;;;;;5105647;27;20833;-75
2023/05/08 06:42:01;;;;;;;22.45;14.27;;;12.90;99.90;;;;;;5106590;27;20438;-76
2023/05/08 06:44:27;;;;;;;18.42;12.10;;;13.00;99.90;;;;;;5118479;27;20030;-76
2023/05/08 06:46:52;;;;;;;15.80;11.07;;;13.20;99.90;;;;;;5113674;27;20065;-76
2023/05/08 06:49:18;;;;;;;17.58;10.48;;;13.50;99.90;;;;;;5104985;27;20608;-76
2023/05/08 06:51:43;;;;;;;19.30;9.93;;;13.60;99.90;;;;;;5107660;27;20030;-75
2023/05/08 06:54:09;;;;;;;14.75;7.60;;;13.90;99.90;;;;;;5119502;27;20103;-76
2023/05/08 06:56:35;;;;;;;10.02;5.25;;;13.90;99.90;;;;;;5115559;27;20031;-76
2023/05/08 06:59:00;;;;;;;9.02;5.78;;;14.20;99.90;;;;;;5112201;27;20813;-76
2023/05/08 07:01:26;;;;;;;11.05;5.25;;;14.70;99.90;;;;;;5102510;27;20031;-76
2023/05/08 07:03:52;;;;;;;10.75;4.30;;;15.20;99.90;;;;;;5114424;27;20027;-75
2023/05/08 07:06:17;;;;;;;10.80;4.20;;;15.80;99.90;;;;;;5121305;27;20023;-75
2023/05/08 07:08:43;;;;;;;9.05;4.38;;;16.20;99.90;;;;;;5108596;27;20043;-76
2023/05/08 07:11:09;;;;;;;11.15;4.32;;;16.70;99.90;;;;;;5117176;27;20122;-76
2023/05/08 07:13:35;;;;;;;9.40;4.28;;;17.10;99.90;;;;;;5114099;27;20027;-76
2023/05/08 07:16:00;;;;;;;11.27;3.97;;;17.50;99.90;;;;;;5117706;27;20039;-76
2023/05/08 07:18:26;;;;;;;11.40;3.42;;;17.90;99.90;;;;;;5128978;27;20027;-76
2023/05/08 07:20:52;;;;;;;6.45;2.83;;;18.00;99.90;;;;;;5121282;27;20030;-75
2023/05/08 07:23:17;;;;;;;10.10;3.15;;;17.80;99.90;;;;;;5135732;27;20113;-75
2023/05/08 07:25:43;;;;;;;9.23;3.60;;;17.90;99.90;;;;;;5117927;27;20027;-75
2023/05/08 07:28:09;;;;;;;10.05;3.45;;;18.20;99.90;;;;;;5120360;27;20507;-75
2023/05/08 07:30:35;;;;;;;7.65;2.78;;;18.50;99.90;;;;;;5109363;27;20139;-75
2023/05/08 07:33:00;;;;;;;7.63;2.65;;;18.70;99.90;;;;;;5115203;27;20035;-75
2023/05/08 07:35:26;;;;;;;9.20;2.25;;;19.00;99.00;;;;;;5101224;27;20394;-74
2023/05/08 07:37:52;;;;;;;8.38;2.40;;;18.90;97.00;;;;;;5101153;27;20394;-75
2023/05/08 07:40:17;;;;;;;7.97;2.70;;;19.10;97.70;;;;;;5102540;27;21107;-75
2023/05/08 07:42:43;;;;;;;10.73;2.33;;;19.30;99.10;;;;;;5100485;28;20494;-75
2023/05/08 07:45:11;;;;;;;9.57;2.65;;;19.20;94.30;;;;;;5113751;27;20023;-74
2023/05/08 07:47:50;;;;;;;7.18;2.10;;;18.90;94.80;;;;;;5102343;27;20101;-74
2023/05/08 07:50:16;;;;;;;9.20;2.20;;;18.70;96.30;;;;;;5106790;27;20697;-75
2023/05/08 07:52:41;;;;;;;8.32;2.10;;;18.60;99.00;;;;;;5109362;27;20027;-75
2023/05/08 07:55:07;;;;;;;9.73;2.50;;;18.90;98.10;;;;;;5101253;28;20027;-75
2023/05/08 07:57:37;;;;;;;6.72;2.17;;;19.30;98.40;;;;;;5089698;28;20043;-75
2023/05/08 08:00:07;;;;;;;12.13;2.40;;;19.60;93.80;;;;;;5083052;28;20028;-75
2023/05/08 08:02:32;;;;;;;6.60;2.10;;;19.90;94.00;;;;;;5090587;28;20507;-75
2023/05/08 08:04:58;;;;;;;12.35;2.25;;;20.10;88.60;;;;;;5114786;28;20035;-74
2023/05/08 08:07:23;;;;;;;12.38;2.35;;;20.20;81.90;;;;;;5100836;27;20378;-75
2023/05/08 08:09:49;;;;;;;7.38;2.13;;;19.80;90.60;;;;;;5140401;27;20046;-74
2023/05/08 08:12:14;;;;;;;5.50;1.75;;;19.80;87.30;;;;;;5110219;28;20039;-74
2023/05/08 08:14:40;;;;;;;6.85;1.80;;;20.00;86.10;;;;;;5099603;28;20036;-74
2023/05/08 08:17:06;;;;;;;8.40;1.65;;;19.70;84.40;;;;;;5103089;28;20015;-75
2023/05/08 08:19:31;;;;;;;6.53;1.20;;;19.70;87.20;;;;;;5118075;28;20042;-74
2023/05/08 08:21:57;;;;;;;7.43;1.70;;;20.30;90.00;;;;;;5104972;28;20050;-74
2023/05/08 08:24:23;;;;;;;6.85;1.92;;;20.70;79.50;;;;;;5122076;27;20035;-75
2023/05/08 08:26:48;;;;;;;8.68;2.05;;;21.30;74.40;;;;;;5136874;27;20553;-75
2023/05/08 08:29:14;;;;;;;7.55;1.48;;;21.80;69.30;;;;;;5109224;28;20032;-75
2023/05/08 08:31:39;;;;;;;7.35;1.60;;;22.10;69.50;;;;;;5107308;27;20069;-75
2023/05/08 08:34:05;;;;;;;8.52;1.40;;;21.50;61.70;;;;;;5107841;28;20483;-87
2023/05/08 08:36:31;;;;;;;6.40;1.50;;;21.10;71.70;;;;;;5122410;28;20115;-90
2023/05/08 08:38:57;;;;;;;6.63;1.80;;;21.10;80.40;;;;;;5111947;28;20058;-88
2023/05/08 08:41:23;;;;;;;7.22;1.63;;;20.70;65.70;;;;;;5115625;28;20027;-89
2023/05/08 08:43:48;;;;;;;6.55;1.40;;;19.60;71.30;;;;;;5125550;28;20023;-90
2023/05/08 08:46:15;;;;;;;9.82;1.80;;;19.50;84.50;;;;;;5116219;28;20034;-90
2023/05/08 08:48:44;;;;;;;8.57;1.58;;;19.30;87.60;;;;;;5125408;27;20096;-91
2023/05/08 08:51:21;;;;;;;8.13;1.33;;;19.30;88.20;;;;;;5119069;27;20035;-86
2023/05/08 08:53:49;;;;;;;7.63;1.77;;;19.20;89.00;;;;;;5116175;27;20134;-90
2023/05/08 08:56:16;;;;;;;7.32;1.33;;;19.50;90.20;;;;;;5117631;27;20023;-86
2023/05/08 08:58:52;;;;;;;6.07;1.48;;;19.30;89.50;;;;;;5112364;27;21032;-87
2023/05/08 09:01:19;;;;;;;7.03;1.88;;;19.50;86.00;;;;;;5114535;27;20489;-90
2023/05/08 09:03:46;;;;;;;5.25;1.58;;;19.30;80.50;;;;;;5120783;27;20027;-88
2023/05/08 09:06:12;;;;;;;8.32;1.50;;;18.90;90.30;;;;;;5118640;27;20466;-88
2023/05/08 09:08:40;;;;;;;10.63;1.60;;;18.60;91.60;;;;;;5125429;27;20814;-87
2023/05/08 09:11:05;;;;;;;8.32;1.98;;;18.50;91.30;;;;;;5116898;27;20039;-89
2023/05/08 09:13:31;;;;;;;9.63;2.25;;;18.10;93.40;;;;;;5120628;27;20103;-91
2023/05/08 09:15:58;;;;;;;8.05;1.88;;;17.60;95.90;;;;;;5119928;27;20526;-89
2023/05/08 09:18:24;;;;;;;5.35;1.58;;;17.60;97.80;;;;;;5118767;27;20057;-87
2023/05/08 09:20:50;;;;;;;8.27;1.80;;;17.50;95.90;;;;;;5119120;27;20059;-90
2023/05/08 09:23:16;;;;;;;6.78;2.00;;;17.20;96.80;;;;;;5120098;27;20566;-89
2023/05/08 09:25:47;;;;;;;7.60;2.03;;;17.20;98.50;;;;;;5118080;27;20027;-90
2023/05/08 09:28:20;;;;;;;5.75;1.60;;;17.20;99.60;;;;;;5115374;27;20073;-91
2023/05/08 09:30:53;;;;;;;8.30;1.75;;;17.30;99.90;;;;;;5111751;27;20126;-90
2023/05/08 09:33:20;;;;;;;12.02;2.17;;;17.40;99.20;;;;;;5115073;27;20019;-90
2023/05/08 09:35:49;;;;;;;5.43;1.60;;;17.60;99.90;;;;;;5115944;27;20028;-90
2023/05/08 09:38:35;;;;;;;7.32;1.90;;;17.60;99.30;;;;;;5114984;27;20019;-89
2023/05/08 09:41:14;;;;;;;5.90;1.77;;;18.00;98.00;;;;;;5121428;27;20454;-90
2023/05/08 09:43:44;;;;;;;5.57;1.45;;;17.50;96.90;;;;;;5122816;27;20431;-89
2023/05/08 09:46:21;;;;;;;8.02;1.63;;;17.50;97.00;;;;;;5128564;27;20025;-87
2023/05/08 09:48:50;;;;;;;5.50;1.40;;;17.70;97.30;;;;;;5124184;27;20050;-88
2023/05/08 09:51:16;;;;;;;13.05;1.98;;;18.20;97.20;;;;;;5126156;27;20055;-90
2023/05/08 09:53:43;;;;;;;8.27;2.10;;;18.70;95.30;;;;;;5127285;27;20069;-90
2023/05/08 09:56:08;;;;;;;6.53;1.70;;;18.80;87.50;;;;;;5136343;27;20035;-88
2023/05/08 09:58:41;;;;;;;9.70;2.00;;;18.80;93.30;;;;;;5118019;27;20115;-86
2023/05/08 10:01:25;;;;;;;6.22;1.75;;;18.40;90.70;;;;;;5127398;27;20087;-90
2023/05/08 10:03:51;;;;;;;5.70;1.80;;;18.40;93.60;;;;;;5115399;27;20066;-90
2023/05/08 10:06:17;;;;;;;10.18;1.98;;;18.10;95.30;;;;;;5126873;27;20796;-90
2023/05/08 10:08:42;;;;;;;8.27;2.25;;;18.50;97.30;;;;;;5114035;27;20026;-87
2023/05/08 10:11:17;;;;;;;8.13;1.80;;;18.60;95.50;;;;;;5112692;27;20104;-91
2023/05/08 10:13:45;;;;;;;9.00;2.05;;;18.60;93.60;;;;;;5111401;28;20043;-91
2023/05/08 10:16:16;;;;;;;5.22;1.70;;;17.90;92.70;;;;;;5112354;27;20130;-86
2023/05/08 10:18:48;;;;;;;9.32;2.30;;;17.30;96.10;;;;;;5131710;27;20030;-87
2023/05/08 10:21:15;;;;;;;11.73;2.45;;;16.80;99.50;;;;;;5130397;27;20034;-89
2023/05/08 10:23:42;;;;;;;10.77;2.20;;;16.70;99.90;;;;;;5115259;27;20044;-89
2023/05/08 10:26:22;;;;;;;8.90;1.85;;;16.50;99.90;;;;;;5112956;27;20683;-89
2023/05/08 10:29:00;;;;;;;8.68;2.05;;;16.40;99.90;;;;;;5123407;27;20024;-91
2023/05/08 10:31:27;;;;;;;7.85;1.90;;;16.40;99.90;;;;;;5121880;27;20058;-87
2023/05/08 10:33:55;;;;;;;8.95;1.80;;;16.20;99.90;;;;;;5118689;27;20046;-89
2023/05/08 10:36:23;;;;;;;7.85;1.90;;;16.00;99.90;;;;;;5123960;27;20032;-89
2023/05/08 10:38:49;;;;;;;10.00;2.05;;;16.00;99.90;;;;;;5122235;27;20443;-86
2023/05/08 10:41:15;;;;;;;6.65;2.03;;;16.00;99.90;;;;;;5120717;27;20142;-89
2023/05/08 10:43:42;;;;;;;8.73;2.45;;;16.50;99.90;;;;;;5113791;27;20043;-89
2023/05/08 10:46:24;;;;;;;9.93;2.42;;;17.20;99.90;;;;;;5112020;27;20032;-90
2023/05/08 10:49:08;;;;;;;7.78;2.00;;;18.20;99.30;;;;;;5109784;28;20047;-90
2023/05/08 10:51:48;;;;;;;10.02;2.00;;;19.00;94.00;;;;;;5105219;28;20027;-85
2023/05/08 10:54:25;;;;;;;6.18;1.65;;;19.90;92.50;;;;;;5091158;28;20065;-85
2023/05/08 10:56:50;;;;;;;6.47;1.77;;;21.50;85.10;;;;;;5098022;27;20032;-90
2023/05/08 10:59:22;;;;;;;6.55;2.00;;;22.90;71.90;;;;;;5125297;27;20030;-89
2023/05/08 11:01:48;;;;;;;7.25;1.70;;;23.90;56.00;;;;;;5100654;28;20471;-89
2023/05/08 11:04:21;;;;;;;7.32;1.50;;;24.40;56.40;;;;;;5095285;28;20031;-87
2023/05/08 11:06:51;;;;;;;6.28;1.45;;;23.90;52.30;;;;;;5097957;27;20509;-87
2023/05/08 11:09:47;;;;;;;9.82;1.85;;;23.40;54.80;;;;;;5094245;27;20035;-86
2023/05/08 11:12:24;;;;;;;8.13;1.90;;;23.40;55.70;;;;;;5100133;28;20071;-88
2023/05/08 11:14:57;;;;;;;3.95;1.40;;;23.30;55.70;;;;;;5093505;28;20047;-89
2023/05/08 11:17:26;;;;;;;5.13;1.40;;;22.60;56.40;;;;;;5093459;28;20031;-89
2023/05/08 11:19:59;;;;;;;7.57;1.45;;;22.10;65.30;;;;;;5093868;28;20036;-88
2023/05/08 11:22:29;;;;;;;5.95;1.60;;;21.40;63.70;;;;;;5097067;27;20028;-85
2023/05/08 11:24:58;;;;;;;7.13;1.48;;;20.50;80.50;;;;;;5097707;28;20020;-87
2023/05/08 11:27:49;;;;;;;6.47;1.10;;;20.20;83.30;;;;;;5099016;27;20031;-88
2023/05/08 11:30:31;;;;;;;3.15;1.10;;;20.00;90.30;;;;;;5098280;28;20023;-86
2023/05/08 11:33:03;;;;;;;5.00;1.00;;;19.60;86.80;;;;;;5091723;28;20039;-87
2023/05/08 11:35:42;;;;;;;4.80;1.10;;;19.20;92.30;;;;;;5091867;28;20402;-86
2023/05/08 11:38:15;;;;;;;7.47;1.23;;;18.20;91.10;;;;;;5103519;27;20023;-86
2023/05/08 11:40:54;;;;;;;4.68;0.98;;;17.60;96.90;;;;;;5115708;27;20059;-91
2023/05/08 11:43:32;;;;;;;4.53;1.17;;;17.30;96.40;;;;;;5113777;28;20019;-87
2023/05/08 11:46:04;;;;;;;6.13;1.27;;;17.00;99.50;;;;;;5104731;28;20491;-89
2023/05/08 11:48:31;;;;;;;2.83;1.10;;;17.40;99.90;;;;;;5110760;27;20045;-93
2023/05/08 11:50:58;;;;;;;4.88;1.10;;;17.30;99.90;;;;;;5132952;27;20041;-90
2023/05/08 11:53:24;;;;;;;3.35;1.10;;;17.80;98.90;;;;;;5132869;27;20084;-86
2023/05/08 11:55:52;;;;;;;3.33;0.90;;;18.00;97.40;;;;;;5115312;27;20026;-86
2023/05/08 11:58:18;;;;;;;3.38;1.00;;;18.40;95.60;;;;;;5135780;27;20027;-89
2023/05/08 12:00:45;;;;;;;2.63;1.00;;;18.50;93.80;;;;;;5129266;27;20581;-91
2023/05/08 12:03:12;;;;;;;4.55;1.20;;;18.20;95.90;;;;;;5122834;28;20027;-90
2023/05/08 12:05:39;;;;;;;3.70;0.95;;;18.50;95.90;;;;;;5129805;28;20035;-89
2023/05/08 12:08:09;;;;;;;3.83;0.90;;;18.80;92.60;;;;;;5128908;28;20092;-90
2023/05/08 12:10:52;;;;;;;3.22;1.00;;;19.20;90.90;;;;;;5121248;27;20122;-88
2023/05/08 12:13:20;;;;;;;2.25;0.80;;;19.40;87.40;;;;;;5110070;28;20015;-92
2023/05/08 12:15:47;;;;;;;4.05;0.93;;;19.60;85.00;;;;;;5111596;28;20038;-87
2023/05/08 12:18:14;;;;;;;2.10;0.88;;;19.50;79.10;;;;;;5119832;28;20447;-92
2023/05/08 12:20:40;;;;;;;2.58;0.77;;;19.50;79.40;;;;;;5119239;28;20130;-90
2023/05/08 12:23:05;;;;;;;4.35;1.13;;;20.50;85.80;;;;;;5116013;27;20045;-89
2023/05/08 12:25:31;;;;;;;3.33;0.85;;;21.60;74.50;;;;;;5152682;27;20035;-91
2023/05/08 12:27:58;;;;;;;1.80;0.50;;;22.80;58.90;;;;;;5117645;27;20047;-91
2023/05/08 12:30:24;;;;;;;3.83;0.80;;;23.90;51.40;;;;;;5126261;27;20087;-92
2023/05/08 12:32:51;;;;;;;1.60;0.50;;;24.30;51.40;;;;;;5142953;27;20050;-92
2023/05/08 12:35:17;;;;;;;4.57;0.70;;;24.20;49.70;;;;;;5128399;27;20198;-89
2023/05/08 12:37:44;;;;;;;2.88;0.55;;;23.90;49.60;;;;;;5128328;27;20027;-91
2023/05/08 12:40:27;;;;;;;1.65;0.40;;;23.60;51.50;;;;;;5124320;27;20046;-90
2023/05/08 12:42:53;;;;;;;3.83;0.75;;;22.70;52.10;;;;;;5127857;27;20151;-90
2023/05/08 12:45:28;;;;;;;4.22;0.90;;;22.00;54.10;;;;;;5127201;27;20019;-91
2023/05/08 12:48:01;;;;;;;1.48;0.60;;;20.80;58.20;;;;;;5127874;27;20114;-81
2023/05/08 12:50:29;;;;;;;2.40;0.90;;;20.10;69.60;;;;;;5133404;27;20039;-90
2023/05/08 12:53:02;;;;;;;2.15;0.68;;;19.60;75.50;;;;;;5137954;27;20019;-94
2023/05/08 12:55:32;;;;;;;2.35;0.50;;;19.00;81.80;;;;;;5134207;27;20534;-91
2023/05/08 12:57:59;;;;;;;3.33;0.60;;;18.70;85.80;;;;;;5131106;27;20073;-89